createdAt,value
2023-03-17T00:01:21.058Z,101287.77
2023-03-17T00:03:49.268Z,101296.01
2023-03-17T00:06:19.327Z,101288.42
2023-03-17T00:08:47.690Z,101286.73
2023-03-17T00:11:17.313Z,101295.55
2023-03-17T00:13:45.901Z,101297.81
2023-03-17T00:16:28.320Z,101299.80
2023-03-17T00:18:56.267Z,101304.35
2023-03-17T00:21:34.129Z,101306.05
2023-03-17T00:24:03.498Z,101301.54
2023-03-17T00:26:31.384Z,101292.25
2023-03-17T00:28:59.975Z,101293.16
2023-03-17T00:31:30.073Z,101287.51
2023-03-17T00:33:58.049Z,101292.88
2023-03-17T00:36:29.581Z,101283.29
2023-03-17T00:38:57.690Z,101285.81
2023-03-17T00:41:25.692Z,101282.45
2023-03-17T00:43:53.720Z,101281.88
2023-03-17T00:46:25.242Z,101277.11
2023-03-17T00:48:53.141Z,101281.92
2023-03-17T00:51:22.271Z,101272.93
2023-03-17T00:53:58.368Z,101268.68
2023-03-17T00:56:26.409Z,101281.43
2023-03-17T00:58:54.187Z,101276.63
2023-03-17T01:01:22.310Z,101277.77
2023-03-17T01:03:50.302Z,101272.38
2023-03-17T01:06:18.126Z,101280.25
2023-03-17T01:08:46.170Z,101281.07
2023-03-17T01:11:19.810Z,101276.85
2023-03-17T01:13:47.876Z,101265.54
2023-03-17T01:16:16.780Z,101262.73
2023-03-17T01:18:44.892Z,101253.44
2023-03-17T01:21:12.759Z,101257.43
2023-03-17T01:23:40.769Z,101245.85
2023-03-17T01:26:08.983Z,101238.53
2023-03-17T01:28:36.922Z,101232.62
2023-03-17T01:31:05.176Z,101224.99
2023-03-17T01:33:33.190Z,101215.64
2023-03-17T01:36:01.176Z,101214.83
2023-03-17T01:38:29.121Z,101211.46
2023-03-17T01:40:57.041Z,101203.28
2023-03-17T01:43:31.099Z,101207.77
2023-03-17T01:46:30.494Z,101210.05
2023-03-17T01:49:07.330Z,101212.34
2023-03-17T01:51:44.095Z,101221.73
2023-03-17T01:54:58.516Z,101226.50
2023-03-17T01:57:33.089Z,101237.19
2023-03-17T02:00:07.497Z,101224.47
2023-03-17T02:02:40.352Z,101221.14
2023-03-17T02:05:10.570Z,101217.41
2023-03-17T02:07:38.902Z,101211.49
2023-03-17T02:10:07.826Z,101211.20
2023-03-17T02:12:36.014Z,101214.01
2023-03-17T02:15:04.501Z,101210.34
2023-03-17T02:17:32.374Z,101206.39
2023-03-17T02:20:13.847Z,101206.39
2023-03-17T02:22:41.720Z,101217.05
2023-03-17T02:25:09.589Z,101210.87
2023-03-17T02:27:39.798Z,101195.86
2023-03-17T02:30:25.535Z,101185.47
2023-03-17T02:32:53.654Z,101186.64
2023-03-17T02:35:21.729Z,101197.07
2023-03-17T02:37:49.530Z,101208.09
2023-03-17T02:40:17.943Z,101217.41
2023-03-17T02:42:45.869Z,101208.35
2023-03-17T02:45:18.271Z,101215.16
2023-03-17T02:47:46.130Z,101204.16
2023-03-17T02:50:20.324Z,101203.05
2023-03-17T02:52:48.279Z,101203.88
2023-03-17T02:55:16.213Z,101204.49
2023-03-17T02:57:44.110Z,101207.30
2023-03-17T03:00:12.867Z,101213.26
2023-03-17T03:02:40.829Z,101204.20
2023-03-17T03:05:10.013Z,101212.11
2023-03-17T03:07:37.953Z,101202.56
2023-03-17T03:10:06.983Z,101206.52
2023-03-17T03:12:34.797Z,101204.82
2023-03-17T03:15:02.755Z,101205.41
2023-03-17T03:17:30.780Z,101206.55
2023-03-17T03:19:59.075Z,101203.48
2023-03-17T03:22:26.905Z,101214.53
2023-03-17T03:24:54.823Z,101221.53
2023-03-17T03:27:22.919Z,101209.98
2023-03-17T03:29:50.777Z,101217.64
2023-03-17T03:32:18.645Z,101222.70
2023-03-17T03:34:46.495Z,101214.53
2023-03-17T03:37:14.464Z,101217.05
2023-03-17T03:39:42.375Z,101230.59
2023-03-17T03:42:10.317Z,101224.38
2023-03-17T03:44:38.231Z,101223.85
2023-03-17T03:47:06.241Z,101235.39
2023-03-17T03:49:34.107Z,101237.62
2023-03-17T03:52:02.004Z,101230.29
2023-03-17T03:54:30.945Z,101239.28
2023-03-17T03:56:58.862Z,101242.20
2023-03-17T03:59:26.754Z,101238.50
2023-03-17T04:01:54.593Z,101226.34
2023-03-17T04:04:23.034Z,101234.58
2023-03-17T04:06:51.029Z,101233.17
2023-03-17T04:09:18.802Z,101235.16
2023-03-17T04:11:47.127Z,101237.71
2023-03-17T04:14:15.242Z,101247.26
2023-03-17T04:16:43.765Z,101244.13
2023-03-17T04:19:12.345Z,101238.79
2023-03-17T04:21:40.355Z,101233.73
2023-03-17T09:14:09.486Z,101202.76
2023-03-17T09:16:38.104Z,101198.74
2023-03-17T09:19:12.162Z,101195.70
2023-03-17T09:21:40.163Z,101197.56
2023-03-17T09:24:08.468Z,101195.86
2023-03-17T09:26:36.265Z,101184.98
2023-03-17T09:29:04.905Z,101185.79
2023-03-17T09:31:33.813Z,101188.80
2023-03-17T09:34:01.659Z,101185.79
2023-03-17T09:36:29.683Z,101186.64
2023-03-17T09:38:57.541Z,101183.27
2023-03-17T09:41:46.874Z,101189.65
2023-03-17T09:44:29.963Z,101187.98
2023-03-17T09:47:08.567Z,101185.92
2023-03-17T09:49:41.426Z,101185.83
2023-03-17T09:52:17.304Z,101180.92
2023-03-17T09:54:45.163Z,101183.70
2023-03-17T09:57:30.620Z,101174.52
2023-03-17T10:00:13.273Z,101182.20
2023-03-17T10:02:41.338Z,101174.28
2023-03-17T10:05:12.884Z,101175.10
2023-03-17T10:07:45.838Z,101172.55
2023-03-17T10:10:21.288Z,101174.05
2023-03-17T10:13:10.587Z,101169.31
2023-03-17T10:15:53.769Z,101156.79
2023-03-17T10:18:24.509Z,101160.81
2023-03-17T10:20:55.457Z,101156.53
2023-03-17T10:23:25.530Z,101154.05
2023-03-17T10:25:53.621Z,101145.45
2023-03-17T10:28:31.166Z,101144.82
2023-03-17T10:31:18.812Z,101144.46
2023-03-17T10:33:49.954Z,101142.47
2023-03-17T10:36:18.346Z,101137.53
2023-03-17T10:38:53.699Z,101135.37
2023-03-17T10:41:21.654Z,101138.38
2023-03-17T10:43:51.900Z,101140.41
2023-03-17T10:46:25.419Z,101126.25
2023-03-17T10:48:58.630Z,101111.90
2023-03-17T10:51:32.334Z,101112.98
2023-03-17T10:54:05.312Z,101109.84
2023-03-17T10:56:41.139Z,101105.78
2023-03-17T10:59:20.105Z,101108.43
2023-03-17T11:01:50.959Z,101114.48
2023-03-17T11:04:32.908Z,101117.85
2023-03-17T11:07:02.136Z,101117.95
2023-03-17T11:09:31.746Z,101110.52
2023-03-17T11:12:03.809Z,101106.73
2023-03-17T11:14:32.238Z,101107.09
2023-03-17T11:17:13.740Z,101113.96
2023-03-17T11:19:50.481Z,101112.55
2023-03-17T11:22:39.236Z,101103.76
2023-03-17T11:25:20.818Z,101097.19
2023-03-17T11:27:54.940Z,101101.80
2023-03-17T11:30:33.839Z,101095.62
2023-03-17T11:33:13.200Z,101082.21
2023-03-17T11:35:59.218Z,101070.27
2023-03-17T11:38:31.423Z,101062.01
2023-03-17T11:41:12.094Z,101063.80
2023-03-17T11:43:51.683Z,101064.06
2023-03-17T11:46:28.761Z,101064.72
2023-03-17T11:49:09.696Z,101053.77
2023-03-17T11:51:41.644Z,101061.74
2023-03-17T11:54:21.134Z,101061.19
2023-03-17T11:56:55.506Z,101063.15
2023-03-17T11:59:41.991Z,101066.84
2023-03-17T12:02:23.765Z,101063.61
2023-03-17T12:04:57.071Z,101060.92
2023-03-17T12:07:27.078Z,101044.52
2023-03-17T12:10:16.712Z,101051.45
2023-03-17T12:13:08.213Z,101051.25
2023-03-17T12:15:54.140Z,101044.12
2023-03-17T12:18:35.020Z,101031.63
2023-03-17T12:21:08.815Z,101027.70
2023-03-17T12:23:56.184Z,101024.17
2023-03-17T12:26:49.681Z,101024.47
2023-03-17T12:29:42.348Z,101032.64
2023-03-17T12:32:25.605Z,101028.42
2023-03-17T12:35:33.305Z,101027.05
2023-03-17T12:38:13.138Z,101021.30
2023-03-17T12:41:04.400Z,101018.65
2023-03-17T12:43:43.721Z,101010.18
2023-03-17T12:46:15.411Z,101014.23
2023-03-17T12:48:58.415Z,100999.91
2023-03-17T12:51:38.572Z,101005.15
2023-03-17T12:54:06.969Z,101004.59
2023-03-17T12:56:35.510Z,101002.76
2023-03-17T12:59:08.315Z,101007.60
2023-03-17T13:01:58.551Z,100996.35
2023-03-17T13:04:39.354Z,100993.18
2023-03-17T13:07:15.565Z,100990.73
2023-03-17T13:09:50.061Z,100977.23
2023-03-17T13:12:45.744Z,100983.89
2023-03-17T13:15:22.687Z,100984.88
2023-03-17T13:17:50.742Z,100977.91
2023-03-17T13:20:20.140Z,100974.64
2023-03-17T13:23:12.469Z,100970.69
2023-03-17T13:25:40.618Z,100971.24
2023-03-17T13:28:14.937Z,100972.68
2023-03-17T13:31:12.620Z,100971.14
2023-03-17T13:33:50.705Z,100973.37
2023-03-17T13:36:29.793Z,100967.55
2023-03-17T13:39:22.388Z,100953.06
2023-03-17T13:42:12.073Z,100950.22
2023-03-17T13:45:19.948Z,100955.84
2023-03-17T13:47:48.406Z,100940.80
2023-03-17T13:50:30.716Z,100940.57
2023-03-17T13:53:11.614Z,100946.29
2023-03-17T13:55:41.934Z,100941.62
2023-03-17T13:58:11.656Z,100946.09
2023-03-17T14:00:41.393Z,100942.70
2023-03-17T14:03:28.646Z,100945.67
2023-03-17T14:05:56.396Z,100948.41
2023-03-17T14:08:37.007Z,100952.96
2023-03-17T14:11:18.051Z,100948.13
2023-03-17T14:14:08.132Z,100958.42
2023-03-17T14:16:38.255Z,100951.59
2023-03-17T14:19:20.804Z,100946.85
2023-03-17T14:21:48.890Z,100949.30
2023-03-17T14:24:31.798Z,100949.30
2023-03-17T14:26:59.647Z,100943.88
2023-03-17T14:29:30.788Z,100943.45
2023-03-17T14:32:28.197Z,100940.18
2023-03-17T14:34:57.830Z,100938.19
2023-03-17T14:37:25.833Z,100947.89
2023-03-17T14:39:56.745Z,100940.08
2023-03-17T14:42:31.825Z,100951.27
2023-03-17T14:45:07.691Z,100946.69
2023-03-17T14:47:42.440Z,100935.57
2023-03-17T14:50:31.561Z,100939.63
2023-03-17T14:53:00.249Z,100942.04
2023-03-17T14:55:42.677Z,100938.64
2023-03-17T14:58:19.083Z,100936.91
2023-03-17T15:00:48.637Z,100940.90
2023-03-17T15:03:24.553Z,100931.71
2023-03-17T15:05:52.610Z,100930.37
2023-03-17T15:08:50.173Z,100942.14
2023-03-17T15:11:29.060Z,100939.49
2023-03-17T15:14:04.956Z,100930.73
2023-03-17T15:16:35.529Z,100927.36
2023-03-17T15:19:16.551Z,100920.73
2023-03-17T15:21:44.673Z,100928.93
2023-03-17T15:24:41.910Z,100920.17
2023-03-17T15:27:17.125Z,100925.50
2023-03-17T15:29:45.600Z,100924.19
2023-03-17T15:32:18.408Z,100916.21
2023-03-17T15:34:46.651Z,100908.37
2023-03-17T15:37:25.047Z,100908.63
2023-03-17T15:39:54.175Z,100908.98
2023-03-17T15:42:23.433Z,100912.16
2023-03-17T15:44:51.814Z,100905.88
2023-03-17T15:47:21.013Z,100901.66
2023-03-17T15:49:49.245Z,100900.81
2023-03-17T15:52:19.017Z,100901.56
2023-03-17T15:54:47.407Z,100896.86
2023-03-17T15:57:15.243Z,100895.05
2023-03-17T15:59:43.154Z,100892.90
2023-03-17T16:02:31.762Z,100897.31
2023-03-17T16:05:00.921Z,100899.63
2023-03-17T16:07:28.993Z,100891.95
2023-03-17T16:09:56.951Z,100898.10
2023-03-17T16:12:25.130Z,100887.47
2023-03-17T16:14:52.886Z,100892.05
2023-03-17T16:17:26.908Z,100897.05
2023-03-17T16:19:54.912Z,100901.47
2023-03-17T16:22:43.141Z,100901.63
2023-03-17T16:25:28.027Z,100896.73
2023-03-17T16:27:57.858Z,100893.52
2023-03-17T16:30:30.845Z,100895.32
2023-03-17T16:33:23.029Z,100900.42
2023-03-17T16:35:51.526Z,100885.91
2023-03-17T16:38:22.427Z,100890.68
2023-03-17T16:40:52.368Z,100888.48
2023-03-17T16:43:30.976Z,100879.40
2023-03-17T16:46:03.377Z,100876.35
2023-03-17T16:48:31.441Z,100879.79
2023-03-17T16:50:59.687Z,100879.59
2023-03-17T16:53:27.858Z,100875.60
2023-03-17T16:55:56.104Z,100886.33
2023-03-17T16:58:42.954Z,100889.44
2023-03-17T17:01:16.097Z,100881.45
2023-03-17T17:03:44.197Z,100881.72
2023-03-17T17:06:12.783Z,100884.73
2023-03-17T17:08:43.651Z,100886.30
2023-03-17T17:11:14.224Z,100892.57
2023-03-17T17:13:43.265Z,100892.48
2023-03-17T17:16:33.851Z,100903.36
2023-03-17T17:19:02.311Z,100906.47
2023-03-17T17:21:30.175Z,100909.61
2023-03-17T17:23:58.688Z,100914.74
2023-03-17T17:26:26.755Z,100913.66
2023-03-17T17:28:54.669Z,100914.77
2023-03-17T17:31:22.471Z,100922.06
2023-03-17T17:33:50.452Z,100918.11
2023-03-17T17:36:18.383Z,100918.01
2023-03-17T17:38:46.551Z,100931.02
2023-03-17T17:41:14.844Z,100941.65
2023-03-17T17:43:42.759Z,100937.82
2023-03-17T17:46:15.809Z,100933.90
2023-03-17T17:48:43.855Z,100935.34
2023-03-17T17:51:11.687Z,100939.27
2023-03-17T17:53:39.542Z,100947.27
2023-03-17T17:56:08.039Z,100947.86
2023-03-17T17:58:35.939Z,100949.17
2023-03-17T18:01:05.948Z,100949.37
2023-03-17T18:03:33.981Z,100943.41
2023-03-17T18:06:02.242Z,100940.15
2023-03-17T18:08:30.248Z,100942.89
2023-03-17T18:10:58.468Z,100950.02
2023-03-17T18:13:26.486Z,100955.97
2023-03-17T18:15:54.318Z,100950.61
2023-03-17T18:18:22.209Z,100955.71
2023-03-17T18:20:50.011Z,100957.02
2023-03-17T18:23:18.781Z,100955.45
2023-03-17T18:25:46.622Z,100962.67
2023-03-17T18:28:14.389Z,100961.50
2023-03-17T18:30:42.493Z,100962.18
2023-03-17T18:33:13.065Z,100960.88
2023-03-17T18:35:41.164Z,100960.62
2023-03-17T18:38:09.949Z,100970.59
2023-03-17T18:40:38.057Z,100972.25
2023-03-17T18:43:05.990Z,100975.46
2023-03-17T18:45:34.000Z,100980.69
2023-03-17T18:48:02.018Z,100982.59
2023-03-17T18:50:30.169Z,100987.45
2023-03-17T18:52:58.477Z,100983.47
2023-03-17T18:55:26.560Z,100985.23
2023-03-17T18:57:56.123Z,100992.63
2023-03-17T19:00:26.507Z,100990.83
2023-03-17T19:02:54.661Z,100993.37
2023-03-17T19:05:22.669Z,100994.55
2023-03-17T19:07:50.542Z,100993.93
2023-03-17T19:10:18.591Z,100989.98
2023-03-17T19:12:47.642Z,100997.85
2023-03-17T19:15:15.899Z,100999.69
2023-03-17T19:17:44.210Z,100997.20
2023-03-17T19:20:13.834Z,101000.41
2023-03-17T19:22:41.808Z,100995.04
2023-03-17T19:25:10.196Z,100989.84
2023-03-17T19:27:38.347Z,100988.86
2023-03-17T19:30:11.740Z,100994.09
2023-03-17T19:32:39.827Z,100995.77
2023-03-17T19:35:08.705Z,100996.61
2023-03-17T19:37:37.320Z,100994.78
2023-03-17T19:40:07.900Z,100996.48
2023-03-17T19:42:36.304Z,100998.84
2023-03-17T19:45:04.980Z,101009.73
2023-03-17T19:47:32.959Z,100997.66
2023-03-17T19:50:00.988Z,101010.25
2023-03-17T19:52:28.893Z,101010.61
2023-03-17T19:54:57.628Z,101018.35
2023-03-17T19:57:25.586Z,101017.34
2023-03-17T19:59:54.322Z,101022.57
2023-03-17T20:02:23.067Z,101012.30
2023-03-17T20:04:51.405Z,101010.97
2023-03-17T20:07:19.380Z,101022.38
2023-03-17T20:09:49.165Z,101017.73
2023-03-17T20:12:17.661Z,101025.65
2023-03-17T20:14:45.621Z,101026.46
2023-03-17T20:17:15.104Z,101022.28
2023-03-17T20:19:43.143Z,101024.83
2023-03-17T20:22:11.242Z,101026.70
2023-03-17T20:24:39.465Z,101028.72
2023-03-17T20:27:08.221Z,101022.34
2023-03-17T20:29:36.113Z,101024.21
2023-03-17T20:32:04.326Z,101035.62
2023-03-17T20:34:36.484Z,101036.47
2023-03-17T20:37:05.072Z,101035.45
2023-03-17T20:39:33.659Z,101036.63
2023-03-17T20:42:02.840Z,101044.02
2023-03-17T20:44:30.816Z,101043.86
2023-03-17T20:46:59.017Z,101035.69
2023-03-17T20:49:27.047Z,101038.70
2023-03-17T20:51:55.005Z,101044.74
2023-03-17T20:54:24.522Z,101049.94
2023-03-17T20:56:57.022Z,101050.92
2023-03-17T20:59:25.897Z,101046.28
2023-03-17T21:01:53.787Z,101046.57
2023-03-17T21:04:22.562Z,101037.88
2023-03-17T21:06:50.965Z,101050.30
2023-03-17T21:09:18.920Z,101050.13
2023-03-17T21:11:46.929Z,101045.10
2023-03-17T21:14:14.835Z,101050.98
2023-03-17T21:16:43.872Z,101045.10
2023-03-17T21:19:14.862Z,101054.32
2023-03-17T21:21:42.957Z,101052.66
2023-03-17T21:24:18.614Z,101044.45
2023-03-17T21:26:46.436Z,101056.15
2023-03-17T21:29:14.836Z,101053.66
2023-03-17T21:31:42.826Z,101048.80
2023-03-17T21:34:10.630Z,101060.53
2023-03-17T21:36:38.437Z,101066.71
2023-03-17T21:39:07.123Z,101053.96
2023-03-17T21:41:37.088Z,101066.06
2023-03-17T21:44:05.184Z,101064.39
2023-03-17T21:46:33.762Z,101070.57
2023-03-17T21:49:01.748Z,101063.70
2023-03-17T21:51:33.390Z,101070.90
2023-03-17T21:54:01.314Z,101064.23
2023-03-17T21:56:30.022Z,101064.52
2023-03-17T21:58:58.765Z,101073.09
2023-03-17T22:01:27.389Z,101079.62
2023-03-17T22:03:55.275Z,101089.01
2023-03-17T22:06:23.144Z,101075.45
2023-03-17T22:08:51.812Z,101088.00
2023-03-17T22:11:20.837Z,101082.63
2023-03-17T22:13:49.280Z,101079.62
2023-03-17T22:16:17.596Z,101080.77
2023-03-17T22:18:45.578Z,101084.30
2023-03-17T22:21:13.462Z,101086.13
2023-03-17T22:23:43.279Z,101090.16
2023-03-17T22:26:15.720Z,101093.98
2023-03-17T22:28:44.293Z,101093.69
2023-03-17T22:31:17.590Z,101091.63
2023-03-17T22:33:45.624Z,101092.48
2023-03-17T22:36:13.496Z,101105.03
2023-03-17T22:38:41.617Z,101098.33
2023-03-17T22:41:10.848Z,101099.02
2023-03-17T22:43:39.368Z,101100.48
2023-03-17T22:46:07.364Z,101104.31
2023-03-17T22:48:37.290Z,101112.68
2023-03-17T22:51:06.861Z,101111.34
2023-03-17T22:53:34.936Z,101116.54
2023-03-17T22:56:02.795Z,101119.52
2023-03-17T22:58:30.631Z,101117.33
2023-03-17T23:00:58.522Z,101121.12
2023-03-17T23:03:26.694Z,101129.16
2023-03-17T23:05:58.303Z,101125.80
2023-03-17T23:08:26.428Z,101137.53
2023-03-17T23:10:55.145Z,101131.32
2023-03-17T23:13:23.409Z,101137.30
2023-03-17T23:15:51.616Z,101139.66
2023-03-17T23:18:19.451Z,101134.82
2023-03-17T23:20:47.637Z,101132.63
2023-03-17T23:23:15.447Z,101136.13
2023-03-17T23:25:43.306Z,101140.97
2023-03-17T23:28:11.130Z,101137.96
2023-03-17T23:30:38.974Z,101144.79
2023-03-17T23:33:07.311Z,101147.15
2023-03-17T23:35:36.788Z,101141.88
2023-03-17T23:38:05.189Z,101149.27
2023-03-17T23:40:33.399Z,101149.73
2023-03-17T23:43:01.529Z,101148.03
2023-03-17T23:45:29.380Z,101161.76
2023-03-17T23:47:58.613Z,101153.65
2023-03-17T23:50:26.420Z,101161.37
2023-03-17T23:52:55.202Z,101157.67
2023-03-17T23:55:23.086Z,101160.98
2023-03-17T23:57:51.338Z,101155.32
